Landels-Hill Big Creek Reserve Entrance, California Weather observations

Data are for 10 minute period ending at time listed.
 Day   Time   Solar   Ave.   Ave.  Ave.  Vector  Max.   Baro.   Total    
  of    of     Rad.   Air    Rel.  Wind   Wind   Wind  Press.  Precip.   
Year   Day            Temp.  Hum.  Speed  Dir.   Gust                    
2015   (PST)  Kw/m2    F      %     mph   deg.    mph    mb.     in.     
-------------------------------------------------------------------------
  30    4:50   0.00   50.5    76    2.4    24     6.6   1012.0    0.00 
  30    5:00   0.00   50.2    76    1.9    40     3.6   1011.9    0.00 
  30    5:10   0.00   50.2    76    2.3    46     5.0   1011.9    0.00 
  30    5:20   0.00   50.5    74    2.4    32     6.4   1011.8    0.00 
  30    5:30   0.00   50.3    74    2.6    32     5.6   1011.8    0.00 
  30    5:40   0.00   50.1    75    1.9    43     4.9   1011.9    0.00 
  30    5:50   0.00   49.4    77    1.9    48     4.5   1011.9    0.00 
  30    6:00   0.00   49.2    78    2.2    41     5.0   1011.9    0.00 
  30    6:10   0.00   49.1    79    2.2    36     4.5   1011.9    0.00 
  30    6:20   0.00   49.5    77    1.8    48     5.3   1011.9    0.00 
  30    6:30   0.00   49.6    77    1.8    38     4.7   1011.9    0.00 
  30    6:40   0.00   49.4    77    1.8    36     4.7   1011.9    0.00 
  30    6:50   0.00   48.9    79    1.7    42     4.4   1011.9    0.00 
  30    7:00   0.00   48.5    80    1.9    43     4.3   1011.9    0.00 
  30    7:10   0.00   48.5    80    2.0    51     4.4   1012.0    0.00 
  30    7:20   0.01   49.0    78    2.1    34     4.5   1011.9    0.00 
  30    7:30   0.01   49.1    78    2.3    51     4.3   1011.8    0.00 
  30    7:40   0.01   49.7    76    2.2    47     4.7   1011.7    0.00 
  30    7:50   0.01   49.6    76    2.2    45     4.2   1011.7    0.00 
  30    8:00   0.01   48.7    80    2.0    43     5.0   1011.8    0.00 
  30    8:10   0.01   48.7    80    2.0    44     4.1   1011.8    0.00 
  30    8:20   0.01   48.8    80    1.6    34     3.5   1011.7    0.00 
  30    8:30   0.02   48.8    80    1.7    25     2.9   1011.7    0.00 
  30    8:40   0.03   48.5    82    1.9    14     3.4   1011.8    0.00 
  30    8:50   0.03   48.3    83    2.6   358     4.7   1011.8    0.00 
  30    9:00   0.03   48.5    84    2.1   359     3.9   1011.9    0.00 
  30    9:10   0.03   48.9    85    2.5     0     5.0   1011.8    0.00 
  30    9:20   0.03   49.9    85    2.6   354     5.1   1011.7    0.00 
  30    9:30   0.03   50.3    84    1.8   348     3.2   1011.7    0.00 
  30    9:40   0.03   50.7    85    0.4     7     2.5   1011.7    0.00 
  30    9:50   0.03   52.9    87    0.9    55     2.0   1011.8    0.00 
  30   10:00   0.04   54.7    86    1.3    59     2.8   1011.7    0.00 
  30   10:10   0.04   56.0    85    0.6   126     1.8   1011.7    0.00 
  30   10:20   0.04   56.3    85    0.4    48     2.3   1011.6    0.00 
  30   10:30   0.04   56.6    86    0.5   144     2.6   1011.5    0.00 
  30   10:40   0.04   56.9    86    0.5   222     2.4   1011.4    0.00 
  30   10:50   0.21   57.2    86    1.1   179     4.2   1011.5    0.00 
  30   11:00   0.48   57.8    85    2.1   129     4.4   1011.6    0.00 
  30   11:10   0.50   59.5    81    0.8   258     3.1   1011.4    0.00 
  30   11:20   0.52   60.7    77    1.2   162     3.5   1011.3    0.00 
  30   11:30   0.53   60.5    77    1.3   198     3.8   1011.2    0.00 
  30   11:40   0.54   61.1    77    1.0   187     3.2   1011.3    0.00 
  30   11:50   0.55   61.6    74    1.6   201     3.7   1011.3    0.00 
  30   12:00   0.56   61.2    75    1.4   193     3.4   1011.2    0.00 
  30   12:10   0.57   61.0    73    2.0   174     4.7   1011.0    0.00 
  30   12:20   0.58   61.3    74    1.5   199     4.7   1010.7    0.00 
  30   12:30   0.58   61.3    76    2.4   201     6.1   1010.4    0.00 
  30   12:40   0.58   60.7    76    2.4   181     6.2   1010.2    0.00 
  30   12:50   0.58   60.2    77    2.3   176     6.6   1010.1    0.00 
  30   13:00   0.57   60.0    76    2.5   154     5.6   1010.0    0.00 
  30   13:10   0.57   59.2    78    2.7   132     6.9   1009.9    0.00 
  30   13:20   0.56   60.4    75    1.8   169     4.5   1009.8    0.00 
  30   13:30   0.55   60.4    74    2.5   127     7.7   1009.8    0.00 
  30   13:40   0.54   59.5    79    2.9    56     6.9   1009.7    0.00 
  30   13:50   0.53   60.4    77    2.0   185     6.1   1009.7    0.00 
  30   14:00   0.52   60.7    75    2.2   165     6.7   1009.7    0.00 
  30   14:10   0.50   60.1    77    2.8   163     7.3   1009.7    0.00 
  30   14:20   0.48   60.4    76    1.9   206     6.1   1009.7    0.00 
  30   14:30   0.47   61.0    73    2.4   189     6.6   1009.6    0.00 
  30   14:40   0.45   61.8    71    1.4   200     3.8   1009.5    0.00 
  30   14:50   0.43   61.8    71    1.4   202     4.5   1009.6    0.00 
  30   15:00   0.41   62.7    68    1.1   213     2.9   1009.4    0.00 
  30   15:10   0.39   62.4    67    1.6   226     3.2   1009.3    0.00 
  30   15:20   0.36   61.2    71    1.7   171     4.4   1009.2    0.00 
  30   15:30   0.34   61.6    71    1.0   243     3.4   1009.1    0.00 
  30   15:40   0.31   61.4    71    1.1   237     3.6   1009.1    0.00 
  30   15:50   0.28   61.3    72    1.5   232     3.7   1009.0    0.00 
  30   16:00   0.25   60.9    72    1.7   209     3.4   1009.0    0.00 
  30   16:10   0.23   60.8    71    1.2   214     2.6   1009.0    0.00 
  30   16:20   0.20   61.0    71    1.3   221     2.9   1008.9    0.00 
  30   16:30   0.17   60.9    71    1.1   182     3.3   1008.8    0.00 
  30   16:40   0.14   60.5    74    0.9   173     3.1   1008.8    0.00 
  30   16:50   0.11   59.9    75    0.9   320     2.6   1008.6    0.00 
  30   17:00   0.07   58.0    78    0.8    23     2.9   1008.4    0.00 
  30   17:10   0.03   57.4    80    0.4   351     1.9   1008.2    0.00 
  30   17:20   0.02   56.3    82    1.5   350     3.1   1008.0    0.00 
  30   17:30   0.01   55.6    84    0.9    23     2.0   1008.1    0.00 
  30   17:40   0.01   54.9    85    0.7   359     1.9   1008.2    0.00 
  30   17:50   0.00   54.4    86    1.6    19     3.3   1008.4    0.00 
  30   18:00   0.00   54.4    87    1.2    31     3.2   1008.7    0.00 
  30   18:10   0.00   54.1    88    1.5    33     3.7   1008.7    0.00 
  30   18:20   0.00   53.8    88    1.0    45     3.1   1008.8    0.00 
  30   18:30   0.00   53.6    88    1.5    38     3.6   1008.9    0.00 
  30   18:40   0.00   53.4    88    1.2    34     4.4   1009.1    0.00 
  30   18:50   0.00   53.0    89    1.2    52     2.4   1009.2    0.00 
  30   19:00   0.00   52.9    89    1.2    30     3.8   1009.3    0.00 
  30   19:10   0.00   52.6    89    2.0    36     5.1   1009.3    0.00 
  30   19:20   0.00   52.3    89    2.0    64     3.7   1009.3    0.00 
  30   19:30   0.00   52.0    89    2.1    41     4.5   1009.1    0.00 
  30   19:40   0.00   51.6    89    2.4    36     4.6   1009.0    0.00 
  30   19:50   0.00   51.6    89    2.6    38     5.9   1009.1    0.00 
  30   20:00   0.00   51.6    88    2.3    47     5.3   1009.1    0.00 
  30   20:10   0.00   51.2    89    1.9    29     5.2   1009.1    0.00 
  30   20:20   0.00   51.0    89    2.3    25     5.4   1009.1    0.00 
  30   20:30   0.00   50.7    89    2.5    37     5.7   1009.1    0.00 
  30   20:40   0.00   50.7    89    2.4    43     4.8   1009.0    0.00 
  30   20:50   0.00   50.6    89    1.6    86     4.3   1009.1    0.00 
  30   21:00   0.00   50.5    88    1.5     2     3.5   1009.1    0.00 
  30   21:10   0.00   49.8    89    1.5   348     2.8   1009.0    0.00 
  30   21:20   0.00   49.6    90    1.5     5     3.3   1009.0    0.00 
  30   21:30   0.00   49.3    91    2.4     6     4.3   1008.9    0.00 
  30   21:40   0.00   49.7    92    2.1    46     4.4   1008.9    0.00 
  30   21:50   0.00   50.1    91    1.8    41     3.9   1009.1    0.00 
  30   22:00   0.00   49.5    90    2.1     8     3.9   1009.2    0.00 
  30   22:10   0.00   49.3    91    2.1    16     4.5   1009.3    0.00 
  30   22:20   0.00   49.2    92    1.8    29     4.0   1009.4    0.00 
  30   22:30   0.00   49.5    92    1.8    49     3.8   1009.3    0.00 
  30   22:40   0.00   49.8    92    3.5     6     7.1   1009.2    0.00 
  30   22:50   0.00   50.0    91    2.2    34     5.4   1009.1    0.00 
  30   23:00   0.00   50.3    90    2.3    31     5.1   1009.2    0.00 
  30   23:10   0.00   50.3    90    2.3    32     4.8   1009.2    0.00 
  30   23:20   0.00   50.4    89    1.6    24     3.8   1009.3    0.00 
  30   23:30   0.00   49.9    89    2.0    53     4.7   1009.3    0.00 
  30   23:40   0.00   50.2    90    1.9    42     4.4   1009.3    0.00 
  30   23:50   0.00   49.9    89    2.0    34     5.1   1009.2    0.00 
  31    0:00   0.00   49.5    90    2.2    46     6.1   1009.1    0.00 
  31    0:10   0.00   49.9    89    2.2    35     5.8   1009.1    0.00 
  31    0:20   0.00   49.4    88    1.9    31     4.6   1009.0    0.00 
  31    0:30   0.00   48.7    90    2.5    47     5.9   1008.8    0.00 
  31    0:40   0.00   48.8    90    2.4    58     4.5   1008.8    0.00 
  31    0:50   0.00   48.6    89    2.3    37     4.5   1008.7    0.00 
  31    1:00   0.00   48.4    90    2.1    37     6.3   1008.6    0.00 
  31    1:10   0.00   48.5    90    1.9    53     4.2   1008.6    0.00 
  31    1:20   0.00   48.3    89    2.1    46     4.7   1008.6    0.00 
  31    1:30   0.00   48.2    90    2.3    54     5.0   1008.6    0.00 
  31    1:40   0.00   48.3    89    1.8    45     4.8   1008.5    0.00 
  31    1:50   0.00   48.1    89    2.3    36     5.5   1008.5    0.00 
  31    2:00   0.00   48.2    89    1.9    41     4.5   1008.5    0.00 
  31    2:10   0.00   48.5    89    2.4    33     6.1   1008.4    0.00 
  31    2:20   0.00   49.2    88    1.8    41     5.8   1008.4    0.00 
  31    2:30   0.00   48.9    88    2.8    41     5.8   1008.3    0.00 
  31    2:40   0.00   49.0    88    2.5    42     5.5   1008.2    0.00 
  31    2:50   0.00   48.6    88    2.9    49     5.3   1008.2    0.00 
  31    3:00   0.00   48.9    88    2.4    24     6.4   1008.2    0.00 
  31    3:10   0.00   49.2    89    2.2    39     7.0   1008.1    0.00 
  31    3:20   0.00   49.5    89    2.4    41     5.7   1008.1    0.00 
  31    3:30   0.00   49.3    89    2.7    68     4.4   1008.1    0.00 
  31    3:40   0.00   49.5    88    2.8    35     5.6   1008.0    0.00 
  31    3:50   0.00   49.5    88    2.5    67     5.8   1007.9    0.00 
  31    4:00   0.00   49.4    88    2.6    38     6.9   1007.7    0.00 
  31    4:10   0.00   48.9    89    2.8    50     5.8   1007.8    0.00 
  31    4:20   0.00   48.7    90    2.8    46     6.4   1008.0    0.00 
  31    4:30   0.00   49.2    90    3.3    37     6.8   1008.1    0.00 
  31    4:40   0.00   48.9    89    2.9    50     6.3   1008.0    0.00 

Return to Big Creek Reserve Entrance graphs page.


Western Regional Climate Center,wrcc@dri.edu